sensor_id;sensor_type;location;lat;lon;timestamp;P1;durP1;ratioP1;P2;durP2;ratioP2
20090;SDS011;10205;49.678;6.560;2023-03-13T00:01:15;7.18;;;2.97;;
20090;SDS011;10205;49.678;6.560;2023-03-13T00:03:45;8.77;;;2.92;;
20090;SDS011;10205;49.678;6.560;2023-03-13T00:06:13;7.97;;;2.60;;
20090;SDS011;10205;49.678;6.560;2023-03-13T00:08:40;9.25;;;2.75;;
20090;SDS011;10205;49.678;6.560;2023-03-13T00:11:10;8.25;;;2.88;;
20090;SDS011;10205;49.678;6.560;2023-03-13T00:13:40;7.72;;;2.60;;
20090;SDS011;10205;49.678;6.560;2023-03-13T00:16:10;11.30;;;2.72;;
20090;SDS011;10205;49.678;6.560;2023-03-13T00:18:43;5.65;;;2.35;;
20090;SDS011;10205;49.678;6.560;2023-03-13T00:21:11;5.82;;;2.30;;
20090;SDS011;10205;49.678;6.560;2023-03-13T00:23:41;5.88;;;2.63;;
20090;SDS011;10205;49.678;6.560;2023-03-13T00:26:10;6.75;;;2.50;;
20090;SDS011;10205;49.678;6.560;2023-03-13T00:28:39;8.65;;;3.33;;
20090;SDS011;10205;49.678;6.560;2023-03-13T00:31:09;9.23;;;3.38;;
20090;SDS011;10205;49.678;6.560;2023-03-13T00:33:38;8.80;;;2.80;;
20090;SDS011;10205;49.678;6.560;2023-03-13T00:36:07;6.90;;;2.50;;
20090;SDS011;10205;49.678;6.560;2023-03-13T00:38:36;5.28;;;2.83;;
20090;SDS011;10205;49.678;6.560;2023-03-13T00:41:04;7.60;;;2.80;;
20090;SDS011;10205;49.678;6.560;2023-03-13T00:43:36;8.77;;;2.78;;
20090;SDS011;10205;49.678;6.560;2023-03-13T00:46:05;5.25;;;2.10;;
20090;SDS011;10205;49.678;6.560;2023-03-13T00:48:32;10.55;;;3.55;;
20090;SDS011;10205;49.678;6.560;2023-03-13T00:51:00;8.85;;;2.80;;
20090;SDS011;10205;49.678;6.560;2023-03-13T00:53:28;8.15;;;2.53;;
20090;SDS011;10205;49.678;6.560;2023-03-13T00:56:00;6.53;;;2.25;;
20090;SDS011;10205;49.678;6.560;2023-03-13T00:58:30;9.15;;;3.10;;
20090;SDS011;10205;49.678;6.560;2023-03-13T01:01:06;7.00;;;2.53;;
20090;SDS011;10205;49.678;6.560;2023-03-13T01:03:35;5.70;;;2.40;;
20090;SDS011;10205;49.678;6.560;2023-03-13T01:06:04;6.22;;;3.05;;
20090;SDS011;10205;49.678;6.560;2023-03-13T01:08:34;6.75;;;2.05;;
20090;SDS011;10205;49.678;6.560;2023-03-13T01:11:04;4.50;;;1.90;;
20090;SDS011;10205;49.678;6.560;2023-03-13T01:13:34;7.28;;;2.15;;
20090;SDS011;10205;49.678;6.560;2023-03-13T01:16:03;6.60;;;2.22;;
20090;SDS011;10205;49.678;6.560;2023-03-13T01:18:34;7.32;;;2.55;;
20090;SDS011;10205;49.678;6.560;2023-03-13T01:21:03;6.63;;;2.33;;
20090;SDS011;10205;49.678;6.560;2023-03-13T01:23:31;7.85;;;2.63;;
20090;SDS011;10205;49.678;6.560;2023-03-13T01:25:59;5.40;;;2.45;;
20090;SDS011;10205;49.678;6.560;2023-03-13T01:28:26;7.15;;;2.53;;
20090;SDS011;10205;49.678;6.560;2023-03-13T01:30:53;5.82;;;2.15;;
20090;SDS011;10205;49.678;6.560;2023-03-13T01:33:22;4.70;;;2.20;;
20090;SDS011;10205;49.678;6.560;2023-03-13T01:35:52;5.85;;;2.63;;
20090;SDS011;10205;49.678;6.560;2023-03-13T01:38:27;6.85;;;2.58;;
20090;SDS011;10205;49.678;6.560;2023-03-13T01:40:54;6.95;;;2.40;;
20090;SDS011;10205;49.678;6.560;2023-03-13T01:43:25;5.85;;;2.63;;
20090;SDS011;10205;49.678;6.560;2023-03-13T01:46:01;5.18;;;1.67;;
20090;SDS011;10205;49.678;6.560;2023-03-13T01:48:40;5.93;;;2.53;;
20090;SDS011;10205;49.678;6.560;2023-03-13T01:51:16;4.50;;;1.90;;
20090;SDS011;10205;49.678;6.560;2023-03-13T01:53:49;5.68;;;1.92;;
20090;SDS011;10205;49.678;6.560;2023-03-13T01:56:25;6.15;;;2.40;;
20090;SDS011;10205;49.678;6.560;2023-03-13T01:59:00;5.97;;;2.13;;
20090;SDS011;10205;49.678;6.560;2023-03-13T02:01:30;4.75;;;2.03;;
20090;SDS011;10205;49.678;6.560;2023-03-13T02:03:59;3.67;;;1.73;;
20090;SDS011;10205;49.678;6.560;2023-03-13T02:06:27;3.53;;;1.75;;
20090;SDS011;10205;49.678;6.560;2023-03-13T02:08:58;4.97;;;1.83;;
20090;SDS011;10205;49.678;6.560;2023-03-13T02:11:32;5.28;;;1.70;;
20090;SDS011;10205;49.678;6.560;2023-03-13T02:14:09;4.22;;;1.70;;
20090;SDS011;10205;49.678;6.560;2023-03-13T02:16:37;2.50;;;1.50;;
20090;SDS011;10205;49.678;6.560;2023-03-13T02:19:09;2.85;;;1.40;;
20090;SDS011;10205;49.678;6.560;2023-03-13T02:21:47;1.95;;;1.55;;
20090;SDS011;10205;49.678;6.560;2023-03-13T02:24:22;3.95;;;1.30;;
20090;SDS011;10205;49.678;6.560;2023-03-13T02:26:58;2.70;;;1.55;;
20090;SDS011;10205;49.678;6.560;2023-03-13T02:29:28;2.05;;;1.27;;
20090;SDS011;10205;49.678;6.560;2023-03-13T02:31:55;3.10;;;1.40;;
20090;SDS011;10205;49.678;6.560;2023-03-13T02:34:24;3.58;;;1.55;;
20090;SDS011;10205;49.678;6.560;2023-03-13T02:36:58;4.20;;;1.48;;
20090;SDS011;10205;49.678;6.560;2023-03-13T02:39:29;2.00;;;1.25;;
20090;SDS011;10205;49.678;6.560;2023-03-13T02:42:00;2.75;;;1.20;;
20090;SDS011;10205;49.678;6.560;2023-03-13T02:44:28;3.13;;;1.30;;
20090;SDS011;10205;49.678;6.560;2023-03-13T02:46:55;1.63;;;1.23;;
20090;SDS011;10205;49.678;6.560;2023-03-13T02:49:23;4.35;;;1.58;;
20090;SDS011;10205;49.678;6.560;2023-03-13T02:51:52;1.58;;;1.17;;
20090;SDS011;10205;49.678;6.560;2023-03-13T02:54:23;2.80;;;1.33;;
20090;SDS011;10205;49.678;6.560;2023-03-13T02:56:55;1.50;;;1.10;;
20090;SDS011;10205;49.678;6.560;2023-03-13T02:59:28;2.08;;;1.10;;
20090;SDS011;10205;49.678;6.560;2023-03-13T03:01:55;1.40;;;1.10;;
20090;SDS011;10205;49.678;6.560;2023-03-13T03:04:23;1.25;;;1.00;;
20090;SDS011;10205;49.678;6.560;2023-03-13T03:06:52;1.52;;;1.25;;
20090;SDS011;10205;49.678;6.560;2023-03-13T03:09:19;2.42;;;1.00;;
20090;SDS011;10205;49.678;6.560;2023-03-13T03:11:48;1.55;;;0.88;;
20090;SDS011;10205;49.678;6.560;2023-03-13T03:14:17;3.15;;;1.00;;
20090;SDS011;10205;49.678;6.560;2023-03-13T03:16:44;2.17;;;0.90;;
20090;SDS011;10205;49.678;6.560;2023-03-13T03:19:11;1.08;;;0.90;;
20090;SDS011;10205;49.678;6.560;2023-03-13T03:21:38;1.13;;;0.90;;
20090;SDS011;10205;49.678;6.560;2023-03-13T03:24:06;1.58;;;1.10;;
20090;SDS011;10205;49.678;6.560;2023-03-13T03:26:34;1.13;;;1.02;;
20090;SDS011;10205;49.678;6.560;2023-03-13T03:29:01;0.93;;;0.93;;
20090;SDS011;10205;49.678;6.560;2023-03-13T03:31:29;1.45;;;1.00;;
20090;SDS011;10205;49.678;6.560;2023-03-13T03:33:56;1.58;;;1.15;;
20090;SDS011;10205;49.678;6.560;2023-03-13T03:36:23;1.83;;;1.17;;
20090;SDS011;10205;49.678;6.560;2023-03-13T03:38:51;1.80;;;1.20;;
20090;SDS011;10205;49.678;6.560;2023-03-13T03:41:18;1.92;;;1.23;;
20090;SDS011;10205;49.678;6.560;2023-03-13T03:43:46;1.90;;;1.10;;
20090;SDS011;10205;49.678;6.560;2023-03-13T03:46:13;2.03;;;1.17;;
20090;SDS011;10205;49.678;6.560;2023-03-13T03:48:42;1.20;;;1.10;;
20090;SDS011;10205;49.678;6.560;2023-03-13T03:51:09;1.77;;;1.42;;
20090;SDS011;10205;49.678;6.560;2023-03-13T03:53:36;1.85;;;1.20;;
20090;SDS011;10205;49.678;6.560;2023-03-13T03:56:04;1.40;;;1.30;;
20090;SDS011;10205;49.678;6.560;2023-03-13T03:58:31;2.22;;;1.27;;
20090;SDS011;10205;49.678;6.560;2023-03-13T04:00:58;3.30;;;1.52;;
20090;SDS011;10205;49.678;6.560;2023-03-13T04:03:25;2.40;;;1.65;;
20090;SDS011;10205;49.678;6.560;2023-03-13T04:05:54;1.63;;;1.08;;
20090;SDS011;10205;49.678;6.560;2023-03-13T04:08:21;1.40;;;1.30;;
20090;SDS011;10205;49.678;6.560;2023-03-13T04:10:49;1.55;;;1.33;;
20090;SDS011;10205;49.678;6.560;2023-03-13T04:13:16;2.15;;;1.38;;
20090;SDS011;10205;49.678;6.560;2023-03-13T04:15:43;2.65;;;1.40;;
20090;SDS011;10205;49.678;6.560;2023-03-13T04:18:13;3.08;;;1.52;;
20090;SDS011;10205;49.678;6.560;2023-03-13T04:20:41;2.45;;;1.27;;
20090;SDS011;10205;49.678;6.560;2023-03-13T04:23:10;1.85;;;1.30;;
20090;SDS011;10205;49.678;6.560;2023-03-13T04:25:37;2.03;;;1.20;;
20090;SDS011;10205;49.678;6.560;2023-03-13T04:28:04;1.63;;;1.17;;
20090;SDS011;10205;49.678;6.560;2023-03-13T04:30:31;1.83;;;1.13;;
20090;SDS011;10205;49.678;6.560;2023-03-13T04:32:58;1.40;;;1.30;;
20090;SDS011;10205;49.678;6.560;2023-03-13T04:35:25;1.92;;;1.30;;
20090;SDS011;10205;49.678;6.560;2023-03-13T04:37:52;1.98;;;1.15;;
20090;SDS011;10205;49.678;6.560;2023-03-13T04:40:21;2.45;;;1.42;;
20090;SDS011;10205;49.678;6.560;2023-03-13T04:42:48;1.20;;;1.10;;
20090;SDS011;10205;49.678;6.560;2023-03-13T04:45:15;1.40;;;1.30;;
20090;SDS011;10205;49.678;6.560;2023-03-13T04:47:42;1.70;;;1.10;;
20090;SDS011;10205;49.678;6.560;2023-03-13T04:50:11;1.33;;;1.02;;
20090;SDS011;10205;49.678;6.560;2023-03-13T04:52:38;1.25;;;1.15;;
20090;SDS011;10205;49.678;6.560;2023-03-13T04:55:05;1.23;;;1.13;;
20090;SDS011;10205;49.678;6.560;2023-03-13T04:57:35;1.38;;;1.20;;
20090;SDS011;10205;49.678;6.560;2023-03-13T05:00:02;1.23;;;1.10;;
20090;SDS011;10205;49.678;6.560;2023-03-13T05:02:32;1.17;;;1.08;;
20090;SDS011;10205;49.678;6.560;2023-03-13T05:04:59;1.05;;;1.02;;
20090;SDS011;10205;49.678;6.560;2023-03-13T05:07:26;2.88;;;1.20;;
20090;SDS011;10205;49.678;6.560;2023-03-13T05:09:53;2.05;;;1.25;;
20090;SDS011;10205;49.678;6.560;2023-03-13T05:12:20;2.03;;;1.30;;
20090;SDS011;10205;49.678;6.560;2023-03-13T05:14:48;1.70;;;1.35;;
20090;SDS011;10205;49.678;6.560;2023-03-13T05:17:16;1.98;;;1.20;;
20090;SDS011;10205;49.678;6.560;2023-03-13T05:19:43;1.65;;;1.20;;
20090;SDS011;10205;49.678;6.560;2023-03-13T05:22:10;2.00;;;1.25;;
20090;SDS011;10205;49.678;6.560;2023-03-13T05:24:37;1.27;;;1.15;;
20090;SDS011;10205;49.678;6.560;2023-03-13T05:27:04;1.65;;;1.13;;
20090;SDS011;10205;49.678;6.560;2023-03-13T05:29:31;1.20;;;1.10;;
20090;SDS011;10205;49.678;6.560;2023-03-13T05:32:00;2.75;;;1.10;;
20090;SDS011;10205;49.678;6.560;2023-03-13T05:34:27;1.70;;;1.30;;
20090;SDS011;10205;49.678;6.560;2023-03-13T05:36:54;1.33;;;1.08;;
20090;SDS011;10205;49.678;6.560;2023-03-13T05:39:21;2.85;;;1.40;;
20090;SDS011;10205;49.678;6.560;2023-03-13T05:41:48;1.30;;;1.20;;
20090;SDS011;10205;49.678;6.560;2023-03-13T05:44:14;2.58;;;1.40;;
20090;SDS011;10205;49.678;6.560;2023-03-13T05:46:42;1.70;;;1.40;;
20090;SDS011;10205;49.678;6.560;2023-03-13T05:49:10;1.75;;;1.50;;
20090;SDS011;10205;49.678;6.560;2023-03-13T05:51:37;1.80;;;1.50;;
20090;SDS011;10205;49.678;6.560;2023-03-13T05:54:04;1.48;;;1.38;;
20090;SDS011;10205;49.678;6.560;2023-03-13T05:56:31;2.17;;;1.40;;
20090;SDS011;10205;49.678;6.560;2023-03-13T05:58:58;1.35;;;1.25;;
20090;SDS011;10205;49.678;6.560;2023-03-13T06:01:25;3.25;;;1.60;;
20090;SDS011;10205;49.678;6.560;2023-03-13T06:03:53;1.65;;;1.50;;
20090;SDS011;10205;49.678;6.560;2023-03-13T06:06:21;2.38;;;1.52;;
20090;SDS011;10205;49.678;6.560;2023-03-13T06:08:48;2.38;;;1.50;;
20090;SDS011;10205;49.678;6.560;2023-03-13T06:11:17;2.70;;;1.55;;
20090;SDS011;10205;49.678;6.560;2023-03-13T06:13:44;2.40;;;1.52;;
20090;SDS011;10205;49.678;6.560;2023-03-13T06:16:11;3.17;;;1.60;;
20090;SDS011;10205;49.678;6.560;2023-03-13T06:18:38;3.10;;;1.65;;
20090;SDS011;10205;49.678;6.560;2023-03-13T06:21:05;3.95;;;1.77;;
20090;SDS011;10205;49.678;6.560;2023-03-13T06:23:33;4.03;;;2.22;;
20090;SDS011;10205;49.678;6.560;2023-03-13T06:26:01;4.00;;;2.00;;
20090;SDS011;10205;49.678;6.560;2023-03-13T06:28:28;2.05;;;1.60;;
20090;SDS011;10205;49.678;6.560;2023-03-13T06:30:59;1.98;;;1.52;;
20090;SDS011;10205;49.678;6.560;2023-03-13T06:33:27;2.40;;;1.48;;
20090;SDS011;10205;49.678;6.560;2023-03-13T06:35:54;3.92;;;1.70;;
20090;SDS011;10205;49.678;6.560;2023-03-13T06:38:22;4.28;;;1.60;;
20090;SDS011;10205;49.678;6.560;2023-03-13T06:40:51;1.98;;;1.58;;
20090;SDS011;10205;49.678;6.560;2023-03-13T06:43:18;2.47;;;1.85;;
20090;SDS011;10205;49.678;6.560;2023-03-13T06:45:46;2.10;;;1.60;;
20090;SDS011;10205;49.678;6.560;2023-03-13T06:48:14;2.65;;;1.77;;
20090;SDS011;10205;49.678;6.560;2023-03-13T06:50:47;1.80;;;1.70;;
20090;SDS011;10205;49.678;6.560;2023-03-13T06:53:15;3.28;;;1.83;;
20090;SDS011;10205;49.678;6.560;2023-03-13T06:55:45;4.65;;;2.33;;
20090;SDS011;10205;49.678;6.560;2023-03-13T06:58:16;1.98;;;1.67;;
20090;SDS011;10205;49.678;6.560;2023-03-13T07:00:43;2.33;;;1.70;;
20090;SDS011;10205;49.678;6.560;2023-03-13T07:03:11;4.05;;;1.90;;
20090;SDS011;10205;49.678;6.560;2023-03-13T07:05:39;1.92;;;1.55;;
20090;SDS011;10205;49.678;6.560;2023-03-13T07:08:06;2.28;;;1.90;;
20090;SDS011;10205;49.678;6.560;2023-03-13T07:10:33;2.83;;;2.05;;
20090;SDS011;10205;49.678;6.560;2023-03-13T07:13:00;2.83;;;1.90;;
20090;SDS011;10205;49.678;6.560;2023-03-13T07:15:28;2.45;;;2.10;;
20090;SDS011;10205;49.678;6.560;2023-03-13T07:17:55;2.42;;;1.63;;
20090;SDS011;10205;49.678;6.560;2023-03-13T07:20:23;3.95;;;2.17;;
20090;SDS011;10205;49.678;6.560;2023-03-13T07:22:50;2.08;;;1.83;;
20090;SDS011;10205;49.678;6.560;2023-03-13T07:25:18;1.65;;;1.55;;
20090;SDS011;10205;49.678;6.560;2023-03-13T07:27:45;3.53;;;2.00;;
20090;SDS011;10205;49.678;6.560;2023-03-13T07:30:16;2.90;;;1.80;;
20090;SDS011;10205;49.678;6.560;2023-03-13T07:32:45;4.15;;;2.20;;
20090;SDS011;10205;49.678;6.560;2023-03-13T07:35:12;2.80;;;1.98;;
20090;SDS011;10205;49.678;6.560;2023-03-13T07:37:43;5.70;;;2.10;;
20090;SDS011;10205;49.678;6.560;2023-03-13T07:40:10;3.30;;;2.10;;
20090;SDS011;10205;49.678;6.560;2023-03-13T07:42:38;3.85;;;2.10;;
20090;SDS011;10205;49.678;6.560;2023-03-13T07:45:06;3.60;;;1.85;;
20090;SDS011;10205;49.678;6.560;2023-03-13T07:47:34;5.15;;;2.25;;
20090;SDS011;10205;49.678;6.560;2023-03-13T07:50:03;4.18;;;1.73;;
20090;SDS011;10205;49.678;6.560;2023-03-13T07:52:31;7.43;;;2.13;;
20090;SDS011;10205;49.678;6.560;2023-03-13T07:54:58;2.97;;;1.92;;
20090;SDS011;10205;49.678;6.560;2023-03-13T07:57:25;4.50;;;2.22;;
20090;SDS011;10205;49.678;6.560;2023-03-13T07:59:52;3.97;;;2.00;;
20090;SDS011;10205;49.678;6.560;2023-03-13T08:02:19;2.22;;;1.63;;
20090;SDS011;10205;49.678;6.560;2023-03-13T08:04:46;3.92;;;2.22;;
20090;SDS011;10205;49.678;6.560;2023-03-13T08:07:18;3.50;;;2.03;;
20090;SDS011;10205;49.678;6.560;2023-03-13T08:09:45;5.57;;;2.20;;
20090;SDS011;10205;49.678;6.560;2023-03-13T08:12:13;3.72;;;2.35;;
20090;SDS011;10205;49.678;6.560;2023-03-13T08:14:40;4.50;;;2.25;;
20090;SDS011;10205;49.678;6.560;2023-03-13T08:17:07;4.35;;;2.45;;
20090;SDS011;10205;49.678;6.560;2023-03-13T08:19:34;4.05;;;1.90;;
20090;SDS011;10205;49.678;6.560;2023-03-13T08:22:02;3.55;;;1.92;;
20090;SDS011;10205;49.678;6.560;2023-03-13T08:24:30;5.55;;;2.00;;
20090;SDS011;10205;49.678;6.560;2023-03-13T08:26:57;3.20;;;2.13;;
20090;SDS011;10205;49.678;6.560;2023-03-13T08:29:24;3.65;;;2.40;;
20090;SDS011;10205;49.678;6.560;2023-03-13T08:31:51;7.00;;;2.67;;
20090;SDS011;10205;49.678;6.560;2023-03-13T08:34:19;4.15;;;2.10;;
20090;SDS011;10205;49.678;6.560;2023-03-13T08:36:46;3.65;;;1.90;;
20090;SDS011;10205;49.678;6.560;2023-03-13T08:39:14;2.65;;;2.10;;
20090;SDS011;10205;49.678;6.560;2023-03-13T08:41:45;9.30;;;2.50;;
20090;SDS011;10205;49.678;6.560;2023-03-13T08:44:12;3.05;;;2.13;;
20090;SDS011;10205;49.678;6.560;2023-03-13T08:46:42;3.03;;;1.90;;
20090;SDS011;10205;49.678;6.560;2023-03-13T08:49:10;2.75;;;2.03;;
20090;SDS011;10205;49.678;6.560;2023-03-13T08:51:40;2.97;;;2.00;;
20090;SDS011;10205;49.678;6.560;2023-03-13T08:54:07;3.72;;;1.88;;
20090;SDS011;10205;49.678;6.560;2023-03-13T08:56:35;2.83;;;1.90;;
20090;SDS011;10205;49.678;6.560;2023-03-13T08:59:04;2.03;;;1.83;;
20090;SDS011;10205;49.678;6.560;2023-03-13T09:01:34;3.38;;;2.13;;
20090;SDS011;10205;49.678;6.560;2023-03-13T09:04:05;3.17;;;1.75;;
20090;SDS011;10205;49.678;6.560;2023-03-13T09:06:32;3.28;;;1.90;;
20090;SDS011;10205;49.678;6.560;2023-03-13T09:09:04;3.75;;;1.83;;
20090;SDS011;10205;49.678;6.560;2023-03-13T09:11:33;7.28;;;2.47;;
20090;SDS011;10205;49.678;6.560;2023-03-13T09:14:01;3.97;;;2.05;;
20090;SDS011;10205;49.678;6.560;2023-03-13T09:16:31;5.30;;;2.28;;
20090;SDS011;10205;49.678;6.560;2023-03-13T09:18:59;4.05;;;2.63;;
20090;SDS011;10205;49.678;6.560;2023-03-13T09:21:27;2.63;;;2.05;;
20090;SDS011;10205;49.678;6.560;2023-03-13T09:23:56;4.35;;;2.20;;
20090;SDS011;10205;49.678;6.560;2023-03-13T09:26:24;2.83;;;2.20;;
20090;SDS011;10205;49.678;6.560;2023-03-13T09:28:53;5.88;;;2.35;;
20090;SDS011;10205;49.678;6.560;2023-03-13T09:31:23;4.22;;;2.10;;
20090;SDS011;10205;49.678;6.560;2023-03-13T09:33:55;4.00;;;2.05;;
20090;SDS011;10205;49.678;6.560;2023-03-13T09:36:22;3.85;;;2.20;;
20090;SDS011;10205;49.678;6.560;2023-03-13T09:38:51;2.60;;;2.00;;
20090;SDS011;10205;49.678;6.560;2023-03-13T09:41:21;2.30;;;2.00;;
20090;SDS011;10205;49.678;6.560;2023-03-13T09:43:55;2.75;;;2.03;;
20090;SDS011;10205;49.678;6.560;2023-03-13T09:46:32;3.95;;;1.92;;
20090;SDS011;10205;49.678;6.560;2023-03-13T09:49:08;5.63;;;1.92;;
20090;SDS011;10205;49.678;6.560;2023-03-13T09:51:58;5.68;;;2.20;;
20090;SDS011;10205;49.678;6.560;2023-03-13T09:54:40;3.97;;;1.98;;
20090;SDS011;10205;49.678;6.560;2023-03-13T09:57:15;2.67;;;1.88;;
20090;SDS011;10205;49.678;6.560;2023-03-13T09:59:51;3.67;;;2.30;;
20090;SDS011;10205;49.678;6.560;2023-03-13T10:02:26;2.55;;;1.60;;
20090;SDS011;10205;49.678;6.560;2023-03-13T10:05:01;2.28;;;1.98;;
20090;SDS011;10205;49.678;6.560;2023-03-13T10:07:39;3.17;;;1.80;;
20090;SDS011;10205;49.678;6.560;2023-03-13T10:10:09;2.17;;;1.58;;
20090;SDS011;10205;49.678;6.560;2023-03-13T10:12:42;1.55;;;1.38;;
20090;SDS011;10205;49.678;6.560;2023-03-13T10:15:23;2.13;;;1.73;;
20090;SDS011;10205;49.678;6.560;2023-03-13T10:18:03;3.28;;;1.95;;
20090;SDS011;10205;49.678;6.560;2023-03-13T10:20:41;2.08;;;1.88;;
20090;SDS011;10205;49.678;6.560;2023-03-13T10:23:13;4.30;;;1.77;;
20090;SDS011;10205;49.678;6.560;2023-03-13T10:25:47;2.15;;;1.80;;
20090;SDS011;10205;49.678;6.560;2023-03-13T10:28:14;4.68;;;1.70;;
20090;SDS011;10205;49.678;6.560;2023-03-13T10:30:46;2.55;;;1.63;;
20090;SDS011;10205;49.678;6.560;2023-03-13T10:33:22;3.08;;;1.80;;
20090;SDS011;10205;49.678;6.560;2023-03-13T10:35:58;2.03;;;1.60;;
20090;SDS011;10205;49.678;6.560;2023-03-13T10:38:31;3.30;;;1.70;;
20090;SDS011;10205;49.678;6.560;2023-03-13T10:41:01;2.20;;;1.60;;
20090;SDS011;10205;49.678;6.560;2023-03-13T10:43:48;4.10;;;1.75;;
20090;SDS011;10205;49.678;6.560;2023-03-13T10:46:24;2.00;;;1.63;;
20090;SDS011;10205;49.678;6.560;2023-03-13T10:48:55;3.38;;;1.60;;
20090;SDS011;10205;49.678;6.560;2023-03-13T10:51:29;2.95;;;1.70;;
20090;SDS011;10205;49.678;6.560;2023-03-13T10:54:12;4.00;;;1.70;;
20090;SDS011;10205;49.678;6.560;2023-03-13T10:56:41;2.17;;;1.70;;
20090;SDS011;10205;49.678;6.560;2023-03-13T10:59:17;2.85;;;1.70;;
20090;SDS011;10205;49.678;6.560;2023-03-13T11:01:49;2.92;;;1.52;;
20090;SDS011;10205;49.678;6.560;2023-03-13T11:04:19;2.38;;;1.60;;
20090;SDS011;10205;49.678;6.560;2023-03-13T11:06:57;6.30;;;1.80;;
20090;SDS011;10205;49.678;6.560;2023-03-13T11:09:29;2.30;;;1.67;;
20090;SDS011;10205;49.678;6.560;2023-03-13T11:12:00;3.83;;;1.60;;
20090;SDS011;10205;49.678;6.560;2023-03-13T11:14:32;2.33;;;1.58;;
20090;SDS011;10205;49.678;6.560;2023-03-13T11:17:02;3.53;;;1.50;;
20090;SDS011;10205;49.678;6.560;2023-03-13T11:19:48;2.47;;;1.60;;
20090;SDS011;10205;49.678;6.560;2023-03-13T11:22:29;4.22;;;1.70;;
20090;SDS011;10205;49.678;6.560;2023-03-13T11:25:18;1.60;;;1.50;;
20090;SDS011;10205;49.678;6.560;2023-03-13T11:27:54;2.00;;;1.50;;
20090;SDS011;10205;49.678;6.560;2023-03-13T11:33:43;2.17;;;1.58;;
20090;SDS011;10205;49.678;6.560;2023-03-13T11:36:32;3.90;;;1.80;;
20090;SDS011;10205;49.678;6.560;2023-03-13T11:39:03;2.22;;;1.65;;
20090;SDS011;10205;49.678;6.560;2023-03-13T11:41:50;3.70;;;1.70;;
20090;SDS011;10205;49.678;6.560;2023-03-13T11:44:29;3.15;;;1.60;;
20090;SDS011;10205;49.678;6.560;2023-03-13T11:47:13;2.17;;;1.60;;
20090;SDS011;10205;49.678;6.560;2023-03-13T11:52:59;3.55;;;1.65;;
20090;SDS011;10205;49.678;6.560;2023-03-13T11:55:54;2.92;;;1.60;;
20090;SDS011;10205;49.678;6.560;2023-03-13T12:01:34;2.92;;;1.73;;
20090;SDS011;10205;49.678;6.560;2023-03-13T12:04:09;2.28;;;1.35;;
20090;SDS011;10205;49.678;6.560;2023-03-13T12:06:45;2.70;;;1.95;;
20090;SDS011;10205;49.678;6.560;2023-03-13T12:09:22;2.33;;;1.73;;
20090;SDS011;10205;49.678;6.560;2023-03-13T12:11:54;1.40;;;1.27;;
20090;SDS011;10205;49.678;6.560;2023-03-13T12:14:29;2.58;;;1.80;;
20090;SDS011;10205;49.678;6.560;2023-03-13T12:17:03;2.00;;;1.85;;
20090;SDS011;10205;49.678;6.560;2023-03-13T12:19:36;3.00;;;1.73;;
20090;SDS011;10205;49.678;6.560;2023-03-13T12:22:13;2.40;;;1.40;;
20090;SDS011;10205;49.678;6.560;2023-03-13T12:24:50;2.25;;;1.40;;
20090;SDS011;10205;49.678;6.560;2023-03-13T12:27:27;1.98;;;1.40;;
20090;SDS011;10205;49.678;6.560;2023-03-13T12:30:04;2.47;;;1.70;;
20090;SDS011;10205;49.678;6.560;2023-03-13T12:32:48;2.15;;;1.38;;
20090;SDS011;10205;49.678;6.560;2023-03-13T12:35:24;3.35;;;2.08;;
20090;SDS011;10205;49.678;6.560;2023-03-13T12:37:54;1.92;;;1.60;;
20090;SDS011;10205;49.678;6.560;2023-03-13T12:40:32;3.30;;;1.80;;
20090;SDS011;10205;49.678;6.560;2023-03-13T12:43:13;2.03;;;1.30;;
20090;SDS011;10205;49.678;6.560;2023-03-13T12:45:48;1.83;;;1.40;;
20090;SDS011;10205;49.678;6.560;2023-03-13T12:48:43;1.88;;;1.40;;
20090;SDS011;10205;49.678;6.560;2023-03-13T12:51:33;3.90;;;1.38;;
20090;SDS011;10205;49.678;6.560;2023-03-13T12:54:28;2.38;;;1.60;;
20090;SDS011;10205;49.678;6.560;2023-03-13T12:57:19;2.53;;;1.42;;
20090;SDS011;10205;49.678;6.560;2023-03-13T13:00:21;2.15;;;1.58;;
20090;SDS011;10205;49.678;6.560;2023-03-13T13:03:00;2.00;;;1.80;;
20090;SDS011;10205;49.678;6.560;2023-03-13T13:05:56;3.22;;;1.70;;
20090;SDS011;10205;49.678;6.560;2023-03-13T13:08:30;3.08;;;1.90;;
20090;SDS011;10205;49.678;6.560;2023-03-13T13:17:25;3.50;;;1.73;;
20090;SDS011;10205;49.678;6.560;2023-03-13T13:20:28;2.38;;;1.70;;
20090;SDS011;10205;49.678;6.560;2023-03-13T13:32:31;2.10;;;1.45;;
20090;SDS011;10205;49.678;6.560;2023-03-13T13:35:17;1.52;;;1.20;;
20090;SDS011;10205;49.678;6.560;2023-03-13T13:41:02;2.90;;;1.40;;
20090;SDS011;10205;49.678;6.560;2023-03-13T13:43:46;2.22;;;1.70;;
20090;SDS011;10205;49.678;6.560;2023-03-13T13:46:18;1.95;;;1.40;;
20090;SDS011;10205;49.678;6.560;2023-03-13T13:49:05;3.88;;;1.35;;
20090;SDS011;10205;49.678;6.560;2023-03-13T13:51:42;1.50;;;1.40;;
20090;SDS011;10205;49.678;6.560;2023-03-13T13:58:10;3.05;;;1.42;;
20090;SDS011;10205;49.678;6.560;2023-03-13T14:00:44;4.43;;;1.58;;
20090;SDS011;10205;49.678;6.560;2023-03-13T14:03:20;1.95;;;1.73;;
20090;SDS011;10205;49.678;6.560;2023-03-13T14:05:51;2.55;;;1.55;;
20090;SDS011;10205;49.678;6.560;2023-03-13T14:08:23;1.38;;;1.27;;
20090;SDS011;10205;49.678;6.560;2023-03-13T14:11:02;2.10;;;1.50;;
20090;SDS011;10205;49.678;6.560;2023-03-13T14:13:44;1.60;;;1.50;;
20090;SDS011;10205;49.678;6.560;2023-03-13T14:16:34;1.38;;;1.13;;
20090;SDS011;10205;49.678;6.560;2023-03-13T14:19:04;1.70;;;1.17;;
20090;SDS011;10205;49.678;6.560;2023-03-13T14:21:46;2.60;;;1.50;;
20090;SDS011;10205;49.678;6.560;2023-03-13T14:24:14;4.10;;;1.50;;
20090;SDS011;10205;49.678;6.560;2023-03-13T14:26:42;1.83;;;1.35;;
20090;SDS011;10205;49.678;6.560;2023-03-13T14:29:14;1.30;;;1.08;;
20090;SDS011;10205;49.678;6.560;2023-03-13T14:31:50;2.85;;;1.00;;
20090;SDS011;10205;49.678;6.560;2023-03-13T14:34:21;1.35;;;1.23;;
20090;SDS011;10205;49.678;6.560;2023-03-13T14:36:50;2.33;;;1.42;;
20090;SDS011;10205;49.678;6.560;2023-03-13T14:39:19;1.33;;;1.17;;
20090;SDS011;10205;49.678;6.560;2023-03-13T14:42:02;2.03;;;1.08;;
20090;SDS011;10205;49.678;6.560;2023-03-13T14:44:32;1.30;;;1.20;;
20090;SDS011;10205;49.678;6.560;2023-03-13T14:47:03;1.90;;;1.17;;
20090;SDS011;10205;49.678;6.560;2023-03-13T14:49:35;1.77;;;0.98;;
20090;SDS011;10205;49.678;6.560;2023-03-13T14:52:03;1.25;;;0.80;;
20090;SDS011;10205;49.678;6.560;2023-03-13T14:54:50;1.63;;;1.00;;
20090;SDS011;10205;49.678;6.560;2023-03-13T14:57:20;1.55;;;1.20;;
20090;SDS011;10205;49.678;6.560;2023-03-13T14:59:50;1.05;;;0.88;;
20090;SDS011;10205;49.678;6.560;2023-03-13T15:02:41;1.40;;;0.90;;
20090;SDS011;10205;49.678;6.560;2023-03-13T15:07:58;1.40;;;1.00;;
20090;SDS011;10205;49.678;6.560;2023-03-13T15:10:30;1.10;;;1.00;;
20090;SDS011;10205;49.678;6.560;2023-03-13T15:13:12;2.63;;;0.90;;
20090;SDS011;10205;49.678;6.560;2023-03-13T15:15:41;1.27;;;1.10;;
20090;SDS011;10205;49.678;6.560;2023-03-13T15:18:12;1.45;;;1.10;;
20090;SDS011;10205;49.678;6.560;2023-03-13T15:20:49;1.40;;;1.10;;
20090;SDS011;10205;49.678;6.560;2023-03-13T15:23:19;2.22;;;1.10;;
20090;SDS011;10205;49.678;6.560;2023-03-13T15:25:47;2.15;;;1.15;;
20090;SDS011;10205;49.678;6.560;2023-03-13T15:28:15;1.20;;;1.00;;
20090;SDS011;10205;49.678;6.560;2023-03-13T15:30:45;1.48;;;1.02;;
20090;SDS011;10205;49.678;6.560;2023-03-13T15:33:17;1.65;;;1.27;;
20090;SDS011;10205;49.678;6.560;2023-03-13T15:35:48;1.00;;;0.90;;
20090;SDS011;10205;49.678;6.560;2023-03-13T15:38:18;2.47;;;1.20;;
20090;SDS011;10205;49.678;6.560;2023-03-13T15:40:48;3.15;;;1.50;;
20090;SDS011;10205;49.678;6.560;2023-03-13T15:43:15;1.75;;;1.17;;
20090;SDS011;10205;49.678;6.560;2023-03-13T15:45:44;1.45;;;1.10;;
20090;SDS011;10205;49.678;6.560;2023-03-13T15:48:16;3.30;;;1.45;;